Time;durP1;ratioP1;P1;durP2;ratioP2;P2;SDS_P1;SDS_P2;PMS_P1;PMS_P2;Temp;Humidity;BMP_temperature;BMP_pressure;BME280_temperature;BME280_humidity;BME280_pressure;Samples;Min_cycle;Max_cycle;Signal;HPM_P1;HPM_P2
2021/07/21 00:01:48;;;;;;;6.72;4.82;;;;;;;21.64;66.38;101083.34;5089941;28;20040;-81
2021/07/21 00:04:14;;;;;;;5.88;4.50;;;;;;;21.59;66.33;101090.34;5089707;28;20060;-81
2021/07/21 00:06:40;;;;;;;8.95;4.47;;;;;;;21.57;66.25;101090.53;5089769;28;20035;-81
2021/07/21 00:09:07;;;;;;;7.90;4.70;;;;;;;21.59;66.35;101085.81;5091008;28;20032;-81
2021/07/21 00:14:20;;;;;;;7.03;5.75;;;;;;;21.63;66.20;101078.97;5091574;28;20032;-81
2021/07/21 00:16:59;;;;;;;6.28;4.45;;;;;;;21.54;65.90;101075.66;5091774;28;20032;-81
2021/07/21 00:22:12;;;;;;;5.13;4.40;;;;;;;21.45;66.14;101084.94;5091371;28;20043;-81
2021/07/21 00:24:42;;;;;;;11.75;4.35;;;;;;;21.36;66.01;101084.25;5063588;28;20498;-81
2021/07/21 00:27:07;;;;;;;6.35;4.20;;;;;;;21.34;66.24;101078.28;5092726;28;20028;-81
2021/07/21 00:29:33;;;;;;;6.30;4.43;;;;;;;21.29;66.44;101080.72;5096382;28;20051;-82
2021/07/21 00:32:05;;;;;;;8.02;4.90;;;;;;;21.24;66.44;101077.81;5100947;28;20566;-82
2021/07/21 00:34:31;;;;;;;7.07;4.72;;;;;;;21.15;66.88;101080.66;5103940;28;20424;-81
2021/07/21 00:36:57;;;;;;;7.10;4.82;;;;;;;21.12;67.13;101078.38;5097955;28;20081;-82
2021/07/21 00:39:22;;;;;;;6.30;4.60;;;;;;;21.09;66.74;101081.44;5104535;28;20115;-82
2021/07/21 00:41:50;;;;;;;9.75;4.30;;;;;;;21.13;66.51;101084.59;5106400;28;20489;-82
2021/07/21 00:44:19;;;;;;;5.80;4.80;;;;;;;21.11;66.58;101079.41;5109927;27;20043;-82
2021/07/21 00:46:50;;;;;;;7.57;5.68;;;;;;;21.13;66.49;101073.84;5101484;28;20035;-82
2021/07/21 00:49:16;;;;;;;7.10;4.95;;;;;;;21.13;66.51;101080.03;5120920;27;20057;-82
2021/07/21 00:51:42;;;;;;;6.25;4.72;;;;;;;21.13;66.50;101071.16;5097429;28;20407;-83
2021/07/21 00:54:09;;;;;;;6.80;4.07;;;;;;;21.07;66.76;101076.28;5123178;28;20534;-82
2021/07/21 00:56:36;;;;;;;16.73;4.57;;;;;;;21.01;66.69;101074.38;5095368;28;20027;-82
2021/07/21 00:59:03;;;;;;;7.80;4.47;;;;;;;20.90;66.86;101073.06;5113620;28;20114;-82
2021/07/21 01:01:30;;;;;;;7.70;4.03;;;;;;;20.79;67.10;101082.50;5079684;28;20520;-82
2021/07/21 01:03:56;;;;;;;8.23;5.75;;;;;;;20.58;67.35;101073.50;5113207;28;20059;-82
2021/07/21 01:06:23;;;;;;;8.70;4.50;;;;;;;20.39;68.10;101079.53;5113797;28;20031;-82
2021/07/21 01:08:58;;;;;;;6.10;4.50;;;;;;;20.31;68.22;101080.50;5114449;28;20045;-82
2021/07/21 01:11:39;;;;;;;7.22;4.22;;;;;;;20.25;68.48;101082.13;5096355;28;20027;-83
2021/07/21 01:14:24;;;;;;;5.97;4.72;;;;;;;20.21;68.57;101083.50;5096605;28;20027;-83
2021/07/21 01:16:57;;;;;;;6.20;4.82;;;;;;;20.22;68.71;101082.50;5079797;28;20050;-83
2021/07/21 01:19:44;;;;;;;8.50;5.10;;;;;;;20.07;69.29;101088.78;5113478;28;20055;-83
2021/07/21 01:22:16;;;;;;;5.25;4.75;;;;;;;20.16;69.26;101086.78;5113194;28;20083;-82
2021/07/21 01:25:16;;;;;;;10.10;5.38;;;;;;;20.05;69.58;101081.94;5096753;28;20035;-83
2021/07/21 01:28:08;;;;;;;5.50;4.90;;;;;;;20.15;69.35;101082.44;5114249;28;20126;-83
2021/07/21 01:30:47;;;;;;;6.38;5.78;;;;;;;20.17;69.59;101090.28;5097866;28;20413;-83
2021/07/21 01:33:15;;;;;;;7.63;5.13;;;;;;;20.16;69.55;101083.28;5096447;28;20132;-83
2021/07/21 01:35:54;;;;;;;6.60;5.40;;;;;;;20.07;69.36;101087.94;5109674;28;20036;-83
2021/07/21 01:38:42;;;;;;;11.73;5.53;;;;;;;20.00;69.49;101087.84;5092921;28;20039;-84
2021/07/21 01:41:18;;;;;;;9.77;5.80;;;;;;;20.15;69.08;101086.97;5093053;28;20630;-83
2021/07/21 01:43:47;;;;;;;7.97;5.70;;;;;;;20.17;69.23;101085.75;5092451;28;20036;-83
2021/07/21 01:46:15;;;;;;;8.68;4.97;;;;;;;20.17;69.20;101088.44;5075956;28;20059;-84
2021/07/21 01:48:45;;;;;;;12.18;5.45;;;;;;;20.12;69.50;101080.13;5079594;28;20530;-83
2021/07/21 01:51:13;;;;;;;7.95;5.97;;;;;;;20.07;69.47;101072.66;5079352;28;20032;-84
2021/07/21 01:53:42;;;;;;;8.93;5.72;;;;;;;20.04;69.59;101078.41;5096270;28;20481;-83
2021/07/21 01:56:14;;;;;;;8.45;5.53;;;;;;;20.02;69.49;101076.94;5096399;28;20126;-83
2021/07/21 01:58:43;;;;;;;11.10;5.30;;;;;;;19.96;69.47;101078.50;5096253;28;20039;-83
2021/07/21 02:01:31;;;;;;;6.20;5.10;;;;;;;19.86;69.62;101078.81;5096197;28;20578;-83
2021/07/21 02:04:02;;;;;;;7.38;4.90;;;;;;;19.89;69.40;101078.44;5113093;28;20096;-84
2021/07/21 02:06:35;;;;;;;6.97;5.88;;;;;;;19.88;69.53;101082.16;5079807;28;20032;-84
2021/07/21 02:09:06;;;;;;;6.63;5.00;;;;;;;19.90;69.38;101085.47;5101147;28;20063;-84
2021/07/21 02:11:33;;;;;;;5.75;4.60;;;;;;;19.95;69.14;101083.06;5077771;28;20043;-85
2021/07/21 02:14:02;;;;;;;5.95;4.93;;;;;;;20.00;68.83;101085.16;5096158;28;20512;-84
2021/07/21 02:16:41;;;;;;;6.30;4.88;;;;;;;19.98;68.65;101083.69;5080671;28;20397;-84
2021/07/21 02:19:12;;;;;;;6.55;5.88;;;;;;;19.95;68.68;101088.44;5078735;28;20033;-84
2021/07/21 02:21:49;;;;;;;6.18;5.55;;;;;;;19.98;68.54;101095.25;5080514;28;20345;-85
2021/07/21 02:24:15;;;;;;;7.75;5.30;;;;;;;19.94;68.63;101084.06;5095801;28;20039;-85
2021/07/21 02:27:00;;;;;;;8.48;5.90;;;;;;;19.87;68.64;101090.38;5098693;27;20028;-84
2021/07/21 02:29:27;;;;;;;11.35;5.47;;;;;;;19.79;68.94;101089.50;5075071;28;20020;-84
2021/07/21 02:32:11;;;;;;;7.38;5.65;;;;;;;19.63;69.35;101092.41;5078559;28;20543;-84
2021/07/21 02:34:38;;;;;;;9.70;5.93;;;;;;;19.64;69.64;101102.94;5078558;28;20489;-84
2021/07/21 02:37:04;;;;;;;7.47;4.90;;;;;;;19.66;69.44;101094.69;5092550;28;20070;-85
2021/07/21 02:39:37;;;;;;;6.35;5.75;;;;;;;19.66;69.40;101100.06;5079622;28;20114;-85
2021/07/21 02:42:03;;;;;;;12.75;5.82;;;;;;;19.63;69.36;101103.13;5078545;28;20063;-85
2021/07/21 02:44:44;;;;;;;9.45;5.47;;;;;;;19.65;68.92;101093.06;5074614;28;20560;-85
2021/07/21 02:47:11;;;;;;;7.03;5.22;;;;;;;19.67;68.98;101093.69;5075351;28;20035;-85
2021/07/21 02:49:39;;;;;;;7.85;5.45;;;;;;;19.68;68.85;101095.34;5075266;28;20077;-86
2021/07/21 02:52:30;;;;;;;7.82;6.70;;;;;;;19.51;69.38;101097.44;5091822;28;20036;-86
2021/07/21 02:55:22;;;;;;;8.63;6.55;;;;;;;19.49;69.23;101104.81;5091844;28;20071;-86
2021/07/21 02:58:00;;;;;;;6.35;5.22;;;;;;;19.56;68.87;101095.00;5092859;28;20024;-86
2021/07/21 03:00:29;;;;;;;5.90;5.30;;;;;;;19.50;68.79;101101.97;5091935;28;20395;-86
2021/07/21 03:03:09;;;;;;;7.85;4.45;;;;;;;19.41;69.02;101095.88;5091725;28;20520;-87
2021/07/21 03:05:39;;;;;;;5.70;5.20;;;;;;;19.36;69.32;101102.81;5075450;28;20063;-86
2021/07/21 03:08:12;;;;;;;6.55;4.60;;;;;;;19.33;69.24;101096.78;5059086;28;20056;-86
2021/07/21 03:10:42;;;;;;;6.60;5.07;;;;;;;19.30;69.01;101102.53;5091651;28;20040;-86
2021/07/21 03:13:16;;;;;;;6.13;4.60;;;;;;;19.21;69.18;101104.47;5091614;28;20032;-87
2021/07/21 03:15:51;;;;;;;6.63;4.70;;;;;;;19.19;69.31;101094.97;5076272;28;20048;-87
2021/07/21 03:18:23;;;;;;;4.53;4.13;;;;;;;19.12;69.33;101096.72;5091702;28;20089;-87
2021/07/21 03:20:50;;;;;;;6.03;4.18;;;;;;;19.05;69.47;101093.91;5091683;28;20035;-87
2021/07/21 03:23:18;;;;;;;5.47;4.93;;;;;;;18.97;69.77;101098.34;5092096;28;20040;-88
2021/07/21 03:26:00;;;;;;;5.78;4.10;;;;;;;18.96;69.52;101095.88;5075284;28;20040;-88
2021/07/21 03:28:30;;;;;;;7.93;4.22;;;;;;;18.97;69.64;101089.47;5103327;28;20462;-88
2021/07/21 03:31:04;;;;;;;5.40;4.85;;;;;;;18.91;69.85;101093.75;5092330;28;20047;-88
2021/07/21 03:33:33;;;;;;;4.00;3.30;;;;;;;18.86;70.15;101089.97;5091512;28;20028;-88
2021/07/21 03:36:08;;;;;;;4.63;3.75;;;;;;;18.84;70.25;101096.31;5100279;28;20409;-87
2021/07/21 03:39:06;;;;;;;4.82;4.10;;;;;;;18.83;69.96;101101.84;5112095;28;20081;-87
2021/07/21 03:41:48;;;;;;;7.25;4.25;;;;;;;18.89;69.66;101100.31;5112364;28;20046;-90
2021/07/21 03:44:18;;;;;;;4.65;3.55;;;;;;;18.89;69.26;101103.78;5108494;28;20100;-88
2021/07/21 03:46:48;;;;;;;6.32;3.55;;;;;;;18.93;69.14;101099.75;5091818;28;20036;-91
2021/07/21 03:49:19;;;;;;;4.50;3.78;;;;;;;18.91;69.08;101098.25;5091962;28;20032;-91
2021/07/21 03:51:59;;;;;;;6.60;4.28;;;;;;;18.91;69.11;101092.91;5091926;28;20036;-91
2021/07/21 03:54:39;;;;;;;4.88;4.28;;;;;;;18.89;69.10;101101.13;5092933;28;20028;-90
2021/07/21 03:57:26;;;;;;;10.90;4.90;;;;;;;18.83;69.04;101101.84;5091460;28;20567;-89
2021/07/21 03:59:53;;;;;;;8.93;4.70;;;;;;;18.80;68.94;101100.38;5074657;28;20040;-89
2021/07/21 04:02:20;;;;;;;5.20;4.40;;;;;;;18.76;68.86;101092.91;5091757;28;20036;-90
2021/07/21 04:04:49;;;;;;;11.43;4.47;;;;;;;18.69;68.85;101099.00;5074554;28;20047;-90
2021/07/21 04:07:19;;;;;;;4.68;4.18;;;;;;;18.63;68.86;101096.19;5092307;28;20029;-91
2021/07/21 04:10:07;;;;;;;6.38;4.10;;;;;;;18.53;68.95;101099.13;5107750;28;20040;-91
2021/07/21 04:12:43;;;;;;;4.40;4.00;;;;;;;18.42;68.94;101098.56;5108898;28;20028;-90
2021/07/21 04:15:13;;;;;;;7.28;4.13;;;;;;;18.38;69.17;101097.25;5091828;28;20036;-91
2021/07/21 04:17:46;;;;;;;7.95;5.32;;;;;;;18.30;69.39;101102.69;5091773;28;20479;-91
2021/07/21 04:20:21;;;;;;;9.52;5.78;;;;;;;18.24;70.29;101090.84;5091661;28;20111;-91
2021/07/21 04:22:49;;;;;;;5.97;5.35;;;;;;;18.19;70.72;101094.06;5091663;28;20389;-92
2021/07/21 04:25:20;;;;;;;7.30;5.57;;;;;;;18.15;71.03;101082.06;5075377;28;20043;-91
2021/07/21 04:27:49;;;;;;;6.03;4.32;;;;;;;18.19;71.10;101082.50;5092525;28;20032;-91
2021/07/21 04:30:19;;;;;;;4.18;3.88;;;;;;;18.22;70.88;101095.53;5058585;28;20043;-91
2021/07/21 04:32:48;;;;;;;5.05;3.83;;;;;;;18.22;70.88;101085.66;5092491;28;20035;-91
2021/07/21 04:35:16;;;;;;;5.63;3.83;;;;;;;18.27;70.69;101084.31;5074691;28;20063;-88
2021/07/21 04:38:04;;;;;;;5.80;3.90;;;;;;;18.25;70.62;101091.69;5092630;28;20110;-91
2021/07/21 04:41:00;;;;;;;2.30;2.08;;;;;;;18.18;70.47;101092.41;5037376;28;20087;-92
2021/07/21 04:43:46;;;;;;;4.65;3.70;;;;;;;18.16;70.34;101094.41;5091783;28;20411;-92
2021/07/21 04:46:37;;;;;;;5.57;3.63;;;;;;;18.16;70.35;101107.78;5091857;28;20563;-92
2021/07/21 04:49:09;;;;;;;6.35;4.47;;;;;;;18.22;69.81;101101.72;5058448;28;20059;-92
2021/07/21 04:51:37;;;;;;;10.55;5.90;;;;;;;18.26;69.96;101107.56;5091468;28;20036;-91
2021/07/21 04:54:10;;;;;;;12.18;8.02;;;;;;;18.27;70.05;101103.03;5092383;28;20103;-90
2021/07/21 04:56:38;;;;;;;10.07;8.52;;;;;;;18.30;69.69;101108.03;5091161;28;20036;-91
2021/07/21 04:59:04;;;;;;;16.45;9.57;;;;;;;18.26;70.04;101102.19;5074150;28;20032;-90
2021/07/21 05:01:37;;;;;;;12.00;8.50;;;;;;;18.16;70.17;101105.13;5074423;28;20044;-90
2021/07/21 05:04:04;;;;;;;10.32;8.23;;;;;;;18.15;70.34;101106.13;5091092;28;20036;-90
2021/07/21 05:06:43;;;;;;;15.82;9.00;;;;;;;18.09;70.66;101109.50;5091184;28;20042;-90
2021/07/21 05:09:11;;;;;;;13.15;8.68;;;;;;;18.07;70.81;101106.16;5090934;28;20035;-90
2021/07/21 05:11:47;;;;;;;29.02;9.73;;;;;;;18.04;71.02;101110.03;5058625;28;20494;-90
2021/07/21 05:14:14;;;;;;;28.33;7.90;;;;;;;18.03;70.69;101110.22;5090916;28;20551;-91
2021/07/21 05:17:02;;;;;;;16.73;8.10;;;;;;;18.00;70.97;101111.38;5062779;28;20105;-91
2021/07/21 05:19:33;;;;;;;21.15;9.90;;;;;;;17.99;70.90;101117.75;5074117;28;20024;-90
2021/07/21 05:21:59;;;;;;;157.05;13.75;;;;;;;18.00;70.92;101118.59;5076294;28;20127;-91
2021/07/21 05:24:26;;;;;;;161.02;13.60;;;;;;;17.96;71.03;101113.56;5077927;28;20031;-90
2021/07/21 05:26:52;;;;;;;152.00;13.40;;;;;;;17.94;71.41;101110.25;5096033;28;20444;-90
2021/07/21 05:29:23;;;;;;;114.25;13.07;;;;;;;17.88;71.76;101108.28;5094585;28;20032;-89
2021/07/21 05:32:07;;;;;;;46.63;11.27;;;;;;;17.86;72.03;101118.31;5095757;28;20093;-90
2021/07/21 05:34:33;;;;;;;38.38;11.63;;;;;;;17.85;71.86;101119.34;5095621;28;20497;-90
2021/07/21 05:37:13;;;;;;;18.35;10.73;;;;;;;17.85;72.07;101111.31;5110796;28;20028;-89
2021/07/21 05:39:52;;;;;;;42.00;10.82;;;;;;;17.86;72.05;101115.66;5076889;28;20028;-89
2021/07/21 05:42:18;;;;;;;49.28;10.02;;;;;;;17.87;72.17;101119.16;5094118;28;20043;-89
2021/07/21 05:44:44;;;;;;;10.73;9.45;;;;;;;17.84;72.34;101123.00;5106369;28;20382;-90
2021/07/21 05:47:12;;;;;;;9.38;8.45;;;;;;;17.87;72.20;101119.16;5097567;28;20031;-90
2021/07/21 05:49:38;;;;;;;7.03;6.32;;;;;;;17.91;72.57;101129.31;5115495;28;20110;-90
2021/07/21 05:52:10;;;;;;;37.45;6.75;;;;;;;17.93;72.23;101124.63;5080278;28;20081;-89
2021/07/21 05:54:39;;;;;;;31.17;8.18;;;;;;;17.98;72.52;101132.13;5080611;28;20110;-90
2021/07/21 05:57:07;;;;;;;14.38;7.47;;;;;;;18.04;72.50;101136.78;5080197;28;20039;-89
2021/07/21 05:59:37;;;;;;;9.32;6.75;;;;;;;18.06;72.51;101133.94;5063837;28;20023;-89
2021/07/21 06:02:04;;;;;;;10.15;7.13;;;;;;;18.08;72.59;101143.44;5096788;28;20042;-87
2021/07/21 06:04:32;;;;;;;7.82;6.60;;;;;;;18.06;72.79;101139.28;5096756;28;20040;-89
2021/07/21 06:07:17;;;;;;;6.50;5.90;;;;;;;18.04;72.89;101133.25;5114733;28;20035;-88
2021/07/21 06:10:02;;;;;;;9.07;7.32;;;;;;;18.08;73.07;101134.56;5114521;28;20482;-88
2021/07/21 06:12:39;;;;;;;9.52;8.52;;;;;;;18.08;73.30;101145.25;5079702;28;20027;-88
2021/07/21 06:15:06;;;;;;;8.70;7.80;;;;;;;18.06;73.73;101145.44;5096498;28;20042;-89
2021/07/21 06:17:33;;;;;;;9.35;8.35;;;;;;;18.06;74.17;101156.13;5062666;28;20042;-88
2021/07/21 06:20:07;;;;;;;12.18;9.63;;;;;;;18.03;74.59;101161.03;5113182;28;20446;-89
2021/07/21 06:22:39;;;;;;;12.27;9.57;;;;;;;17.99;75.45;101163.22;5079802;28;20028;-89
2021/07/21 06:25:16;;;;;;;12.98;9.75;;;;;;;18.02;75.76;101170.88;5096090;28;20039;-88
2021/07/21 06:28:11;;;;;;;14.43;10.47;;;;;;;18.02;76.50;101168.22;5095972;28;20127;-89
2021/07/21 06:30:39;;;;;;;10.80;9.55;;;;;;;18.13;76.73;101164.31;5096366;28;20440;-88
2021/07/21 06:33:09;;;;;;;15.25;9.18;;;;;;;18.27;77.00;101170.75;5113489;28;20089;-86
2021/07/21 06:35:36;;;;;;;10.95;8.63;;;;;;;18.38;77.10;101177.53;5095828;28;20036;-88
2021/07/21 06:38:02;;;;;;;14.30;9.07;;;;;;;18.49;77.30;101170.13;5114204;28;20054;-88
2021/07/21 06:40:29;;;;;;;17.23;8.90;;;;;;;18.56;77.34;101177.25;5078766;28;20036;-88
2021/07/21 06:42:56;;;;;;;12.75;8.48;;;;;;;18.71;77.45;101176.47;5078938;28;20393;-88
2021/07/21 06:45:23;;;;;;;13.20;8.35;;;;;;;18.81;77.46;101181.53;5095396;28;20036;-88
2021/07/21 06:48:06;;;;;;;11.70;8.65;;;;;;;18.91;77.62;101182.13;5064245;28;20032;-86
2021/07/21 06:50:35;;;;;;;12.18;8.38;;;;;;;19.00;78.30;101182.88;5113672;28;20027;-87
2021/07/21 06:53:02;;;;;;;14.88;8.38;;;;;;;19.08;78.17;101184.63;5113414;28;20028;-88
2021/07/21 06:56:06;;;;;;;9.45;8.00;;;;;;;19.21;78.15;101184.03;5113607;28;20036;-88
2021/07/21 06:58:43;;;;;;;8.82;7.78;;;;;;;19.35;78.14;101187.72;5078328;28;20482;-86
2021/07/21 07:01:14;;;;;;;8.32;7.53;;;;;;;19.51;77.99;101185.91;5113369;28;20032;-85
2021/07/21 07:03:58;;;;;;;8.85;7.30;;;;;;;19.62;78.06;101188.09;5113563;28;20381;-86
2021/07/21 07:06:53;;;;;;;8.68;7.55;;;;;;;19.73;78.16;101180.59;5022639;28;20057;-86
2021/07/21 07:09:39;;;;;;;8.80;7.20;;;;;;;20.00;77.89;101179.09;5094759;28;20035;-86
2021/07/21 07:12:28;;;;;;;8.57;6.80;;;;;;;20.27;77.19;101179.41;5102120;28;20044;-86
2021/07/21 07:14:53;;;;;;;7.68;6.40;;;;;;;20.54;77.03;101178.81;5094713;28;20047;-83
2021/07/21 07:17:19;;;;;;;9.23;6.32;;;;;;;20.76;76.85;101178.78;5078060;28;20420;-84
2021/07/21 07:19:45;;;;;;;9.25;5.53;;;;;;;21.01;76.34;101183.72;5113239;28;20195;-83
2021/07/21 07:22:10;;;;;;;7.28;5.95;;;;;;;21.27;76.86;101190.31;5112731;28;20081;-81
2021/07/21 07:24:36;;;;;;;9.60;5.75;;;;;;;21.60;75.28;101189.66;5094608;28;20028;-84
2021/07/21 07:27:03;;;;;;;6.70;5.68;;;;;;;21.84;74.33;101197.44;5096799;27;20035;-82
2021/07/21 07:29:30;;;;;;;7.22;5.80;;;;;;;21.95;73.30;101198.75;5121670;27;20023;-83
2021/07/21 07:31:55;;;;;;;9.77;5.68;;;;;;;22.05;72.61;101194.63;5123405;27;20079;-83
2021/07/21 07:34:21;;;;;;;9.32;6.30;;;;;;;22.27;72.29;101196.31;5133298;27;20039;-81
2021/07/21 07:36:47;;;;;;;7.57;5.97;;;;;;;22.48;71.65;101181.84;5114573;27;20019;-81
2021/07/21 07:39:14;;;;;;;9.88;5.35;;;;;;;22.72;70.77;101184.16;5080777;27;20031;-82
2021/07/21 07:41:40;;;;;;;12.80;6.15;;;;;;;22.82;70.21;101178.38;5114750;27;20023;-80
2021/07/21 07:44:06;;;;;;;6.97;5.93;;;;;;;22.90;69.43;101181.66;5110365;28;20116;-82
2021/07/21 07:46:33;;;;;;;8.15;5.55;;;;;;;22.93;69.17;101178.53;5076907;28;20032;-81
2021/07/21 07:48:59;;;;;;;7.38;5.65;;;;;;;22.94;68.58;101182.09;5112418;28;20038;-82
2021/07/21 07:51:24;;;;;;;7.05;5.50;;;;;;;22.86;68.17;101183.13;5112335;28;20035;-80
2021/07/21 07:53:51;;;;;;;8.02;6.10;;;;;;;22.75;67.99;101181.06;5094129;28;20039;-81
2021/07/21 07:56:18;;;;;;;7.18;5.18;;;;;;;22.66;68.02;101178.56;5077260;28;20035;-82
2021/07/21 07:58:44;;;;;;;9.70;6.28;;;;;;;22.65;68.29;101186.84;5093567;28;20028;-81
2021/07/21 08:01:10;;;;;;;10.85;5.70;;;;;;;22.63;68.53;101188.94;5095762;28;20050;-82
2021/07/21 08:03:36;;;;;;;11.23;5.18;;;;;;;22.73;68.43;101185.81;5113260;27;20473;-81
2021/07/21 08:06:02;;;;;;;7.85;5.13;;;;;;;22.82;67.57;101183.75;5095402;27;20092;-81
2021/07/21 08:08:29;;;;;;;7.28;4.68;;;;;;;22.84;67.28;101185.19;5099246;28;20028;-81
2021/07/21 08:10:55;;;;;;;13.02;5.63;;;;;;;22.90;67.15;101180.84;5076714;28;20032;-81
2021/07/21 08:13:21;;;;;;;7.68;5.10;;;;;;;23.03;67.03;101182.72;5093857;27;20096;-80
2021/07/21 08:15:47;;;;;;;6.50;5.50;;;;;;;23.17;66.82;101187.00;5131676;27;20501;-81
2021/07/21 08:18:13;;;;;;;5.72;5.18;;;;;;;23.29;66.86;101181.81;5097125;28;20099;-80
2021/07/21 08:20:40;;;;;;;8.93;5.60;;;;;;;23.42;66.20;101178.28;5092771;28;20059;-81
2021/07/21 08:23:06;;;;;;;11.93;5.15;;;;;;;23.54;65.89;101191.91;5107300;28;20037;-80
2021/07/21 08:25:32;;;;;;;5.82;5.10;;;;;;;23.70;65.23;101189.78;5111408;28;20040;-80
2021/07/21 08:27:59;;;;;;;7.10;5.00;;;;;;;23.76;65.13;101182.72;5092841;28;20036;-78
2021/07/21 08:30:25;;;;;;;5.53;4.90;;;;;;;23.81;65.34;101190.16;5111272;28;20035;-80
2021/07/21 08:32:52;;;;;;;9.48;4.70;;;;;;;23.90;64.83;101183.47;5110823;28;20096;-81
2021/07/21 08:35:23;;;;;;;7.78;4.47;;;;;;;24.00;64.25;101186.50;5111066;28;20024;-79
2021/07/21 08:37:49;;;;;;;5.20;4.70;;;;;;;24.11;64.66;101179.59;5109727;28;20080;-79
2021/07/21 08:40:15;;;;;;;10.75;4.22;;;;;;;24.22;63.88;101182.69;5097092;27;20020;-79
2021/07/21 08:42:41;;;;;;;4.97;4.47;;;;;;;24.30;63.71;101178.91;5101811;28;20100;-80
2021/07/21 08:45:09;;;;;;;6.00;4.50;;;;;;;24.37;63.11;101177.81;5129648;27;20050;-80
2021/07/21 08:47:35;;;;;;;11.30;5.03;;;;;;;24.45;62.75;101184.81;5112998;28;20111;-81
2021/07/21 08:50:03;;;;;;;5.75;3.83;;;;;;;24.52;61.93;101176.66;5075644;28;20028;-80
2021/07/21 08:52:30;;;;;;;6.32;4.40;;;;;;;24.61;61.54;101183.44;5122125;28;20035;-80
2021/07/21 08:54:58;;;;;;;8.55;3.75;;;;;;;24.67;60.50;101180.91;5131244;28;20063;-80
2021/07/21 08:57:28;;;;;;;15.05;4.43;;;;;;;24.65;59.88;101186.53;5108645;28;20323;-79
2021/07/21 09:00:05;;;;;;;7.78;3.95;;;;;;;24.56;59.59;101185.97;5110600;28;20121;-80
2021/07/21 09:02:32;;;;;;;5.45;4.43;;;;;;;24.58;59.91;101186.59;5106471;28;20125;-80
2021/07/21 09:04:58;;;;;;;5.03;4.22;;;;;;;24.59;59.60;101182.81;5097015;28;20039;-80
2021/07/21 09:07:24;;;;;;;8.77;3.50;;;;;;;24.63;58.81;101185.91;5116827;28;20377;-79
2021/07/21 09:09:50;;;;;;;6.90;3.22;;;;;;;24.66;58.60;101182.78;5123151;28;20052;-80
2021/07/21 09:12:16;;;;;;;6.88;3.33;;;;;;;24.72;57.98;101181.06;5114408;28;20032;-78
2021/07/21 09:14:42;;;;;;;5.03;2.65;;;;;;;24.79;57.21;101179.13;5092521;28;20027;-79
2021/07/21 09:17:14;;;;;;;7.32;3.58;;;;;;;24.83;55.97;101174.13;5111290;28;20600;-79
2021/07/21 09:19:44;;;;;;;5.78;2.80;;;;;;;24.86;56.05;101179.88;5131199;28;20031;-79
2021/07/21 09:22:23;;;;;;;8.32;3.22;;;;;;;24.88;55.62;101185.91;5103419;28;20427;-81
2021/07/21 09:25:13;;;;;;;8.10;3.92;;;;;;;24.82;56.02;101180.56;5110388;28;20634;-79
2021/07/21 09:27:40;;;;;;;4.43;3.33;;;;;;;25.11;56.07;101186.34;5093894;28;20031;-78
2021/07/21 09:30:08;;;;;;;4.60;3.22;;;;;;;25.18;55.27;101186.28;5119909;28;20161;-79
2021/07/21 09:32:51;;;;;;;5.13;3.35;;;;;;;25.17;55.17;101181.91;5123824;28;20038;-79
2021/07/21 09:35:34;;;;;;;3.63;2.80;;;;;;;25.35;54.73;101184.63;5124765;28;20031;-78
2021/07/21 09:38:22;;;;;;;4.63;2.80;;;;;;;25.45;55.17;101177.84;5095506;28;20027;-78
2021/07/21 09:41:04;;;;;;;3.30;2.78;;;;;;;25.39;54.39;101175.00;5095737;28;20031;-79
2021/07/21 09:43:32;;;;;;;4.70;3.17;;;;;;;25.59;54.11;101168.53;5096115;28;20032;-79
2021/07/21 09:46:10;;;;;;;3.55;2.80;;;;;;;25.56;54.28;101177.09;5112730;28;20107;-80
2021/07/21 09:48:35;;;;;;;6.38;2.63;;;;;;;25.70;53.99;101183.19;5090305;28;20046;-81
2021/07/21 09:51:01;;;;;;;8.27;2.90;;;;;;;25.76;53.17;101178.75;5075292;28;20036;-80
2021/07/21 09:53:45;;;;;;;4.05;2.53;;;;;;;25.83;53.03;101182.16;5092162;28;20046;-82
2021/07/21 09:56:14;;;;;;;4.82;2.60;;;;;;;25.92;52.55;101177.28;5092514;28;20519;-79
2021/07/21 09:58:45;;;;;;;3.78;2.58;;;;;;;25.96;51.74;101173.03;5111981;28;20387;-79
2021/07/21 10:01:11;;;;;;;7.47;3.20;;;;;;;26.08;51.98;101175.81;5095346;28;20031;-80
2021/07/21 10:03:40;;;;;;;5.50;2.20;;;;;;;26.18;51.43;101180.66;5112195;28;20038;-79
2021/07/21 10:06:09;;;;;;;7.88;2.95;;;;;;;26.23;50.53;101182.69;5130650;28;20070;-80
2021/07/21 10:08:41;;;;;;;6.63;3.00;;;;;;;26.23;50.86;101183.47;5113473;28;20044;-79
2021/07/21 10:11:28;;;;;;;9.15;2.67;;;;;;;26.15;50.43;101175.72;5113599;28;20044;-80
2021/07/21 10:14:14;;;;;;;4.40;2.58;;;;;;;26.22;50.69;101181.00;5095650;28;20058;-79
2021/07/21 10:16:45;;;;;;;4.88;2.60;;;;;;;26.46;50.29;101178.38;5100613;27;20030;-80
2021/07/21 10:19:14;;;;;;;3.53;2.42;;;;;;;26.54;50.16;101175.31;5114980;27;20111;-79
2021/07/21 10:21:42;;;;;;;9.98;2.85;;;;;;;26.61;49.21;101180.66;5113491;27;20035;-78
2021/07/21 10:24:09;;;;;;;9.27;2.47;;;;;;;26.66;49.27;101179.94;5113324;28;20039;-80
2021/07/21 10:26:35;;;;;;;9.52;2.50;;;;;;;26.68;49.04;101177.81;5113414;28;20032;-79
2021/07/21 10:29:01;;;;;;;7.43;2.40;;;;;;;26.74;48.42;101183.13;5112861;28;20486;-80
2021/07/21 10:31:28;;;;;;;3.67;2.28;;;;;;;26.82;49.31;101175.69;5113097;28;20036;-80
2021/07/21 10:33:54;;;;;;;4.78;2.47;;;;;;;26.85;48.28;101181.47;5117943;27;20050;-78
2021/07/21 10:36:21;;;;;;;9.48;2.60;;;;;;;26.94;48.00;101179.22;5111848;28;20100;-79
2021/07/21 10:38:47;;;;;;;4.10;2.28;;;;;;;27.02;48.02;101175.34;5120875;27;20037;-79
2021/07/21 10:41:14;;;;;;;3.22;2.63;;;;;;;27.06;47.76;101181.16;5088373;27;20027;-79
2021/07/21 10:43:45;;;;;;;6.07;2.25;;;;;;;27.06;47.44;101173.00;5124009;27;20041;-79
2021/07/21 10:46:33;;;;;;;4.90;2.42;;;;;;;27.01;47.50;101184.56;5110014;28;20032;-78
2021/07/21 10:54:50;;;;;;;5.63;2.40;;;;;;;27.49;46.99;101182.56;5123473;27;20032;-80
2021/07/21 11:00:30;;;;;;;7.47;2.30;;;;;;;27.61;46.34;101181.72;5090696;27;20412;-80
2021/07/21 11:03:16;;;;;;;2.47;2.05;;;;;;;27.62;46.43;101176.03;5116753;27;20027;-81
2021/07/21 11:05:50;;;;;;;7.82;2.50;;;;;;;27.76;46.05;101174.97;5133181;27;20043;-78
2021/07/21 11:08:18;;;;;;;3.70;2.35;;;;;;;27.65;46.21;101165.78;5125541;27;20485;-78
2021/07/21 11:10:47;;;;;;;9.90;2.90;;;;;;;27.72;46.45;101177.34;5114695;27;20027;-77
2021/07/21 11:13:33;;;;;;;4.68;2.65;;;;;;;27.73;46.57;101176.25;5133265;27;20076;-79
2021/07/21 11:16:03;;;;;;;7.13;2.60;;;;;;;27.93;46.27;101170.41;5114610;27;20031;-80
2021/07/21 11:18:35;;;;;;;8.15;2.20;;;;;;;28.09;47.03;101176.09;5082197;28;20393;-79
2021/07/21 11:21:12;;;;;;;3.65;2.20;;;;;;;28.14;46.10;101176.19;5094057;28;20036;-81
2021/07/21 11:23:57;;;;;;;5.10;2.55;;;;;;;28.15;45.31;101175.13;5111319;27;20031;-79
2021/07/21 11:26:32;;;;;;;5.75;2.30;;;;;;;28.18;46.28;101171.91;5133139;27;20512;-80
2021/07/21 11:29:18;;;;;;;3.40;2.50;;;;;;;28.21;46.55;101171.41;5101074;28;20074;-78
2021/07/21 11:31:53;;;;;;;8.75;2.10;;;;;;;28.33;46.04;101173.28;5129779;27;20035;-79
2021/07/21 11:34:29;;;;;;;5.20;2.67;;;;;;;28.41;45.22;101170.16;5097402;27;20117;-79
2021/07/21 11:36:56;;;;;;;6.30;2.22;;;;;;;28.44;45.47;101161.50;5110374;28;20028;-78
2021/07/21 11:39:44;;;;;;;5.13;2.55;;;;;;;28.42;45.86;101157.34;5093553;28;20031;-80
2021/07/21 11:42:23;;;;;;;4.07;1.92;;;;;;;28.43;45.29;101153.59;5076651;28;20513;-79
2021/07/21 11:44:51;;;;;;;3.47;2.28;;;;;;;28.52;44.82;101154.81;5095997;27;20047;-78
2021/07/21 11:47:18;;;;;;;2.67;1.90;;;;;;;28.55;45.28;101148.88;5111488;27;20027;-78
2021/07/21 11:49:52;;;;;;;4.70;2.13;;;;;;;28.54;44.60;101149.13;5113157;27;20015;-78
2021/07/21 11:52:23;;;;;;;2.65;1.70;;;;;;;28.57;44.51;101148.63;5109215;27;20118;-80
2021/07/21 11:54:50;;;;;;;3.40;1.90;;;;;;;28.60;44.81;101148.13;5102162;27;20023;-81
2021/07/21 11:57:15;;;;;;;3.72;1.75;;;;;;;28.66;44.23;101152.56;5112216;27;20108;-79
2021/07/21 11:59:43;;;;;;;4.10;1.70;;;;;;;28.74;44.70;101154.03;5116358;27;20461;-80
2021/07/21 12:02:16;;;;;;;8.80;2.03;;;;;;;28.87;43.88;101143.88;5090498;28;20036;-80